sensor_id;sensor_type;location;lat;lon;timestamp;temperature;humidity
54938;DHT22;52756;52.826;6.214;2023-10-09T00:02:08;15.30;75.20
54938;DHT22;52756;52.826;6.214;2023-10-09T00:04:35;15.40;75.20
54938;DHT22;52756;52.826;6.214;2023-10-09T00:07:03;15.40;75.30
54938;DHT22;52756;52.826;6.214;2023-10-09T00:09:28;15.40;75.30
54938;DHT22;52756;52.826;6.214;2023-10-09T00:11:57;15.40;75.40
54938;DHT22;52756;52.826;6.214;2023-10-09T00:14:29;15.40;75.40
54938;DHT22;52756;52.826;6.214;2023-10-09T00:16:56;15.40;75.40
54938;DHT22;52756;52.826;6.214;2023-10-09T00:19:49;15.50;75.50
54938;DHT22;52756;52.826;6.214;2023-10-09T00:22:15;15.50;75.50
54938;DHT22;52756;52.826;6.214;2023-10-09T00:24:50;15.50;75.60
54938;DHT22;52756;52.826;6.214;2023-10-09T00:27:25;15.50;75.50
54938;DHT22;52756;52.826;6.214;2023-10-09T00:29:56;15.50;75.60
54938;DHT22;52756;52.826;6.214;2023-10-09T00:32:24;15.50;75.60
54938;DHT22;52756;52.826;6.214;2023-10-09T00:34:53;15.50;75.60
54938;DHT22;52756;52.826;6.214;2023-10-09T00:37:18;15.50;75.60
54938;DHT22;52756;52.826;6.214;2023-10-09T00:39:52;15.50;75.60
54938;DHT22;52756;52.826;6.214;2023-10-09T00:42:25;15.60;75.80
54938;DHT22;52756;52.826;6.214;2023-10-09T00:44:55;15.50;75.70
54938;DHT22;52756;52.826;6.214;2023-10-09T00:47:21;15.50;75.70
54938;DHT22;52756;52.826;6.214;2023-10-09T00:49:51;15.50;75.60
54938;DHT22;52756;52.826;6.214;2023-10-09T00:52:34;15.50;75.70
54938;DHT22;52756;52.826;6.214;2023-10-09T00:55:07;15.50;75.70
54938;DHT22;52756;52.826;6.214;2023-10-09T00:57:44;15.50;75.80
54938;DHT22;52756;52.826;6.214;2023-10-09T01:00:22;15.50;75.80
54938;DHT22;52756;52.826;6.214;2023-10-09T01:03:06;15.50;75.80
54938;DHT22;52756;52.826;6.214;2023-10-09T01:05:44;15.50;75.90
54938;DHT22;52756;52.826;6.214;2023-10-09T01:08:42;15.50;76.00
54938;DHT22;52756;52.826;6.214;2023-10-09T01:11:15;15.50;76.00
54938;DHT22;52756;52.826;6.214;2023-10-09T01:13:45;15.50;76.00
54938;DHT22;52756;52.826;6.214;2023-10-09T01:16:14;15.40;76.10
54938;DHT22;52756;52.826;6.214;2023-10-09T01:18:43;15.50;76.20
54938;DHT22;52756;52.826;6.214;2023-10-09T01:21:10;15.50;76.20
54938;DHT22;52756;52.826;6.214;2023-10-09T01:23:45;15.40;76.10
54938;DHT22;52756;52.826;6.214;2023-10-09T01:29:10;15.50;76.20
54938;DHT22;52756;52.826;6.214;2023-10-09T01:31:40;15.50;76.40
54938;DHT22;52756;52.826;6.214;2023-10-09T01:34:12;15.50;76.50
54938;DHT22;52756;52.826;6.214;2023-10-09T01:36:39;15.50;76.50
54938;DHT22;52756;52.826;6.214;2023-10-09T01:39:05;15.50;76.60
54938;DHT22;52756;52.826;6.214;2023-10-09T01:41:51;16.10;77.10
54938;DHT22;52756;52.826;6.214;2023-10-09T01:44:27;15.50;76.80
54938;DHT22;52756;52.826;6.214;2023-10-09T01:46:56;15.50;77.00
54938;DHT22;52756;52.826;6.214;2023-10-09T01:49:24;15.50;77.30
54938;DHT22;52756;52.826;6.214;2023-10-09T01:51:57;15.50;77.70
54938;DHT22;52756;52.826;6.214;2023-10-09T01:54:29;15.50;77.90
54938;DHT22;52756;52.826;6.214;2023-10-09T01:57:08;15.50;78.20
54938;DHT22;52756;52.826;6.214;2023-10-09T01:59:41;15.50;78.40
54938;DHT22;52756;52.826;6.214;2023-10-09T02:02:10;15.50;78.50
54938;DHT22;52756;52.826;6.214;2023-10-09T02:04:56;15.50;78.50
54938;DHT22;52756;52.826;6.214;2023-10-09T02:07:33;15.50;78.70
54938;DHT22;52756;52.826;6.214;2023-10-09T02:10:11;15.50;78.70
54938;DHT22;52756;52.826;6.214;2023-10-09T02:13:04;15.50;78.70
54938;DHT22;52756;52.826;6.214;2023-10-09T02:15:39;15.50;78.80
54938;DHT22;52756;52.826;6.214;2023-10-09T02:18:13;15.50;78.80
54938;DHT22;52756;52.826;6.214;2023-10-09T02:20:43;15.50;78.90
54938;DHT22;52756;52.826;6.214;2023-10-09T02:23:13;15.50;78.90
54938;DHT22;52756;52.826;6.214;2023-10-09T02:25:42;15.60;79.00
54938;DHT22;52756;52.826;6.214;2023-10-09T02:28:09;15.50;79.20
54938;DHT22;52756;52.826;6.214;2023-10-09T02:30:44;15.50;79.20
54938;DHT22;52756;52.826;6.214;2023-10-09T02:33:17;15.50;79.40
54938;DHT22;52756;52.826;6.214;2023-10-09T02:35:56;15.50;79.90
54938;DHT22;52756;52.826;6.214;2023-10-09T02:38:25;15.50;79.50
54938;DHT22;52756;52.826;6.214;2023-10-09T02:40:52;15.80;79.80
54938;DHT22;52756;52.826;6.214;2023-10-09T02:43:33;15.50;79.70
54938;DHT22;52756;52.826;6.214;2023-10-09T02:46:06;15.50;79.80
54938;DHT22;52756;52.826;6.214;2023-10-09T02:48:41;15.50;79.90
54938;DHT22;52756;52.826;6.214;2023-10-09T02:51:11;15.50;79.90
54938;DHT22;52756;52.826;6.214;2023-10-09T02:53:46;15.50;80.00
54938;DHT22;52756;52.826;6.214;2023-10-09T02:56:15;15.50;80.00
54938;DHT22;52756;52.826;6.214;2023-10-09T02:58:43;15.50;80.00
54938;DHT22;52756;52.826;6.214;2023-10-09T03:01:13;15.50;80.00
54938;DHT22;52756;52.826;6.214;2023-10-09T03:03:41;15.50;80.00
54938;DHT22;52756;52.826;6.214;2023-10-09T03:06:14;15.60;80.00
54938;DHT22;52756;52.826;6.214;2023-10-09T03:08:44;15.50;80.00
54938;DHT22;52756;52.826;6.214;2023-10-09T03:11:13;15.50;80.10
54938;DHT22;52756;52.826;6.214;2023-10-09T03:13:43;15.50;80.20
54938;DHT22;52756;52.826;6.214;2023-10-09T03:16:10;15.50;80.30
54938;DHT22;52756;52.826;6.214;2023-10-09T03:18:51;16.20;80.90
54938;DHT22;52756;52.826;6.214;2023-10-09T03:21:18;15.60;80.70
54938;DHT22;52756;52.826;6.214;2023-10-09T03:23:48;16.20;81.50
54938;DHT22;52756;52.826;6.214;2023-10-09T03:26:17;15.60;81.50
54938;DHT22;52756;52.826;6.214;2023-10-09T03:28:47;15.60;81.70
54938;DHT22;52756;52.826;6.214;2023-10-09T03:31:13;15.60;81.90
54938;DHT22;52756;52.826;6.214;2023-10-09T03:33:40;15.60;81.90
54938;DHT22;52756;52.826;6.214;2023-10-09T03:36:06;15.60;82.00
54938;DHT22;52756;52.826;6.214;2023-10-09T03:38:38;15.60;82.10
54938;DHT22;52756;52.826;6.214;2023-10-09T03:41:05;15.60;82.30
54938;DHT22;52756;52.826;6.214;2023-10-09T03:43:34;15.60;82.30
54938;DHT22;52756;52.826;6.214;2023-10-09T03:46:11;15.60;82.40
54938;DHT22;52756;52.826;6.214;2023-10-09T03:48:59;15.60;82.50
54938;DHT22;52756;52.826;6.214;2023-10-09T03:51:28;15.60;82.50
54938;DHT22;52756;52.826;6.214;2023-10-09T03:53:54;15.70;82.80
54938;DHT22;52756;52.826;6.214;2023-10-09T03:56:21;15.70;82.80
54938;DHT22;52756;52.826;6.214;2023-10-09T03:58:48;16.00;83.20
54938;DHT22;52756;52.826;6.214;2023-10-09T04:01:20;16.00;83.40
54938;DHT22;52756;52.826;6.214;2023-10-09T04:03:57;15.80;83.50
54938;DHT22;52756;52.826;6.214;2023-10-09T04:06:30;15.80;83.70
54938;DHT22;52756;52.826;6.214;2023-10-09T04:09:09;15.80;83.80
54938;DHT22;52756;52.826;6.214;2023-10-09T04:11:49;15.80;83.90
54938;DHT22;52756;52.826;6.214;2023-10-09T04:14:46;15.80;84.10
54938;DHT22;52756;52.826;6.214;2023-10-09T04:17:23;15.80;84.10
54938;DHT22;52756;52.826;6.214;2023-10-09T04:19:55;15.80;84.20
54938;DHT22;52756;52.826;6.214;2023-10-09T04:22:40;15.90;84.30
54938;DHT22;52756;52.826;6.214;2023-10-09T04:25:20;15.90;84.40
54938;DHT22;52756;52.826;6.214;2023-10-09T04:27:53;16.00;84.60
54938;DHT22;52756;52.826;6.214;2023-10-09T04:30:26;16.00;84.60
54938;DHT22;52756;52.826;6.214;2023-10-09T04:32:51;16.00;84.70
54938;DHT22;52756;52.826;6.214;2023-10-09T04:35:20;16.10;84.80
54938;DHT22;52756;52.826;6.214;2023-10-09T04:37:50;16.10;84.80
54938;DHT22;52756;52.826;6.214;2023-10-09T04:40:29;16.00;84.90
54938;DHT22;52756;52.826;6.214;2023-10-09T04:43:14;16.60;85.30
54938;DHT22;52756;52.826;6.214;2023-10-09T04:45:49;16.30;85.20
54938;DHT22;52756;52.826;6.214;2023-10-09T04:48:49;16.10;85.20
54938;DHT22;52756;52.826;6.214;2023-10-09T04:51:17;16.10;85.10
54938;DHT22;52756;52.826;6.214;2023-10-09T04:53:47;16.10;85.30
54938;DHT22;52756;52.826;6.214;2023-10-09T04:56:16;16.50;85.60
54938;DHT22;52756;52.826;6.214;2023-10-09T04:58:42;16.20;85.30
54938;DHT22;52756;52.826;6.214;2023-10-09T05:01:09;16.20;85.20
54938;DHT22;52756;52.826;6.214;2023-10-09T05:03:40;16.80;85.60
54938;DHT22;52756;52.826;6.214;2023-10-09T05:06:05;16.20;85.20
54938;DHT22;52756;52.826;6.214;2023-10-09T05:08:47;16.30;85.20
54938;DHT22;52756;52.826;6.214;2023-10-09T05:11:13;16.60;85.40
54938;DHT22;52756;52.826;6.214;2023-10-09T05:13:57;16.30;85.30
54938;DHT22;52756;52.826;6.214;2023-10-09T05:16:37;16.30;85.10
54938;DHT22;52756;52.826;6.214;2023-10-09T05:19:03;16.30;85.10
54938;DHT22;52756;52.826;6.214;2023-10-09T05:21:36;16.30;85.10
54938;DHT22;52756;52.826;6.214;2023-10-09T05:24:12;16.30;85.10
54938;DHT22;52756;52.826;6.214;2023-10-09T05:26:45;16.30;85.10
54938;DHT22;52756;52.826;6.214;2023-10-09T05:29:15;16.30;85.10
54938;DHT22;52756;52.826;6.214;2023-10-09T05:32:04;16.40;85.10
54938;DHT22;52756;52.826;6.214;2023-10-09T05:34:53;16.40;85.10
54938;DHT22;52756;52.826;6.214;2023-10-09T05:37:29;16.40;85.00
54938;DHT22;52756;52.826;6.214;2023-10-09T05:40:00;16.40;85.00
54938;DHT22;52756;52.826;6.214;2023-10-09T05:42:29;16.40;84.90
54938;DHT22;52756;52.826;6.214;2023-10-09T05:45:11;16.40;84.80
54938;DHT22;52756;52.826;6.214;2023-10-09T05:47:43;16.40;84.80
54938;DHT22;52756;52.826;6.214;2023-10-09T05:50:29;16.40;84.80
54938;DHT22;52756;52.826;6.214;2023-10-09T05:52:58;16.40;84.70
54938;DHT22;52756;52.826;6.214;2023-10-09T05:55:27;16.40;84.70
54938;DHT22;52756;52.826;6.214;2023-10-09T05:58:11;16.70;84.90
54938;DHT22;52756;52.826;6.214;2023-10-09T06:00:55;16.40;84.70
54938;DHT22;52756;52.826;6.214;2023-10-09T06:03:33;16.50;84.70
54938;DHT22;52756;52.826;6.214;2023-10-09T06:06:14;16.50;84.70
54938;DHT22;52756;52.826;6.214;2023-10-09T06:09:09;16.50;84.60
54938;DHT22;52756;52.826;6.214;2023-10-09T06:11:38;16.50;84.60
54938;DHT22;52756;52.826;6.214;2023-10-09T06:14:04;16.50;84.70
54938;DHT22;52756;52.826;6.214;2023-10-09T06:16:37;16.50;84.70
54938;DHT22;52756;52.826;6.214;2023-10-09T06:19:22;16.50;84.70
54938;DHT22;52756;52.826;6.214;2023-10-09T06:21:48;16.50;84.60
54938;DHT22;52756;52.826;6.214;2023-10-09T06:24:21;16.50;84.60
54938;DHT22;52756;52.826;6.214;2023-10-09T06:26:49;16.60;84.70
54938;DHT22;52756;52.826;6.214;2023-10-09T06:29:39;16.50;84.60
54938;DHT22;52756;52.826;6.214;2023-10-09T06:32:17;16.70;84.70
54938;DHT22;52756;52.826;6.214;2023-10-09T06:34:53;16.60;84.60
54938;DHT22;52756;52.826;6.214;2023-10-09T06:37:23;16.60;84.60
54938;DHT22;52756;52.826;6.214;2023-10-09T06:39:53;16.60;84.60
54938;DHT22;52756;52.826;6.214;2023-10-09T06:42:25;16.60;84.70
54938;DHT22;52756;52.826;6.214;2023-10-09T06:45:11;16.60;84.80
54938;DHT22;52756;52.826;6.214;2023-10-09T06:47:46;16.60;84.90
54938;DHT22;52756;52.826;6.214;2023-10-09T06:50:22;16.60;85.00
54938;DHT22;52756;52.826;6.214;2023-10-09T06:52:49;16.60;85.10
54938;DHT22;52756;52.826;6.214;2023-10-09T06:55:44;16.60;85.10
54938;DHT22;52756;52.826;6.214;2023-10-09T06:58:20;16.70;85.20
54938;DHT22;52756;52.826;6.214;2023-10-09T07:00:54;16.70;85.30
54938;DHT22;52756;52.826;6.214;2023-10-09T07:03:38;16.70;85.30
54938;DHT22;52756;52.826;6.214;2023-10-09T07:06:18;16.70;85.30
54938;DHT22;52756;52.826;6.214;2023-10-09T07:08:51;16.70;85.20
54938;DHT22;52756;52.826;6.214;2023-10-09T07:11:37;16.80;85.30
54938;DHT22;52756;52.826;6.214;2023-10-09T07:17:01;16.80;85.50
54938;DHT22;52756;52.826;6.214;2023-10-09T07:19:28;16.80;85.60
54938;DHT22;52756;52.826;6.214;2023-10-09T07:22:03;16.80;85.70
54938;DHT22;52756;52.826;6.214;2023-10-09T07:24:29;16.80;85.80
54938;DHT22;52756;52.826;6.214;2023-10-09T07:27:12;17.30;86.20
54938;DHT22;52756;52.826;6.214;2023-10-09T07:29:41;16.80;85.90
54938;DHT22;52756;52.826;6.214;2023-10-09T07:32:19;16.90;85.90
54938;DHT22;52756;52.826;6.214;2023-10-09T07:34:50;17.00;86.00
54938;DHT22;52756;52.826;6.214;2023-10-09T07:37:37;17.00;85.90
54938;DHT22;52756;52.826;6.214;2023-10-09T07:40:04;17.00;85.70
54938;DHT22;52756;52.826;6.214;2023-10-09T07:42:33;17.00;85.70
54938;DHT22;52756;52.826;6.214;2023-10-09T07:45:10;17.00;85.80
54938;DHT22;52756;52.826;6.214;2023-10-09T07:47:49;17.00;85.80
54938;DHT22;52756;52.826;6.214;2023-10-09T07:50:37;17.00;85.90
54938;DHT22;52756;52.826;6.214;2023-10-09T07:53:07;17.00;85.80
54938;DHT22;52756;52.826;6.214;2023-10-09T07:55:51;17.10;85.80
54938;DHT22;52756;52.826;6.214;2023-10-09T07:58:27;17.10;85.80
54938;DHT22;52756;52.826;6.214;2023-10-09T08:00:55;17.10;86.10
54938;DHT22;52756;52.826;6.214;2023-10-09T08:03:24;17.20;85.80
54938;DHT22;52756;52.826;6.214;2023-10-09T08:05:51;17.70;86.10
54938;DHT22;52756;52.826;6.214;2023-10-09T08:08:18;17.40;85.90
54938;DHT22;52756;52.826;6.214;2023-10-09T08:11:07;17.40;85.80
54938;DHT22;52756;52.826;6.214;2023-10-09T08:13:51;17.30;85.60
54938;DHT22;52756;52.826;6.214;2023-10-09T08:16:26;17.30;85.70
54938;DHT22;52756;52.826;6.214;2023-10-09T08:19:02;17.30;85.80
54938;DHT22;52756;52.826;6.214;2023-10-09T08:21:47;17.30;86.00
54938;DHT22;52756;52.826;6.214;2023-10-09T08:24:32;17.30;85.80
54938;DHT22;52756;52.826;6.214;2023-10-09T08:27:07;17.40;86.20
54938;DHT22;52756;52.826;6.214;2023-10-09T08:29:51;17.40;86.30
54938;DHT22;52756;52.826;6.214;2023-10-09T08:32:36;17.40;86.30
54938;DHT22;52756;52.826;6.214;2023-10-09T08:35:06;17.40;86.20
54938;DHT22;52756;52.826;6.214;2023-10-09T08:37:52;17.50;86.20
54938;DHT22;52756;52.826;6.214;2023-10-09T08:40:26;17.50;86.00
54938;DHT22;52756;52.826;6.214;2023-10-09T08:42:53;17.60;86.00
54938;DHT22;52756;52.826;6.214;2023-10-09T08:45:22;17.50;85.80
54938;DHT22;52756;52.826;6.214;2023-10-09T08:47:52;17.60;85.70
54938;DHT22;52756;52.826;6.214;2023-10-09T08:50:19;17.60;85.60
54938;DHT22;52756;52.826;6.214;2023-10-09T08:52:49;17.60;85.60
54938;DHT22;52756;52.826;6.214;2023-10-09T08:55:15;17.60;85.70
54938;DHT22;52756;52.826;6.214;2023-10-09T08:57:45;17.60;85.60
54938;DHT22;52756;52.826;6.214;2023-10-09T09:00:19;17.70;85.60
54938;DHT22;52756;52.826;6.214;2023-10-09T09:02:58;17.60;85.50
54938;DHT22;52756;52.826;6.214;2023-10-09T09:05:25;17.60;85.40
54938;DHT22;52756;52.826;6.214;2023-10-09T09:07:54;17.70;85.40
54938;DHT22;52756;52.826;6.214;2023-10-09T09:10:31;17.60;85.70
54938;DHT22;52756;52.826;6.214;2023-10-09T09:13:03;17.70;85.20
54938;DHT22;52756;52.826;6.214;2023-10-09T09:15:30;17.70;85.20
54938;DHT22;52756;52.826;6.214;2023-10-09T09:18:07;17.70;85.10
54938;DHT22;52756;52.826;6.214;2023-10-09T09:20:36;17.70;85.00
54938;DHT22;52756;52.826;6.214;2023-10-09T09:23:11;17.70;85.00
54938;DHT22;52756;52.826;6.214;2023-10-09T09:25:44;17.70;85.00
54938;DHT22;52756;52.826;6.214;2023-10-09T09:28:11;17.70;85.00
54938;DHT22;52756;52.826;6.214;2023-10-09T09:30:38;17.70;85.10
54938;DHT22;52756;52.826;6.214;2023-10-09T09:33:23;17.80;85.20
54938;DHT22;52756;52.826;6.214;2023-10-09T09:35:59;17.80;85.00
54938;DHT22;52756;52.826;6.214;2023-10-09T09:38:28;17.80;85.10
54938;DHT22;52756;52.826;6.214;2023-10-09T09:40:57;17.80;85.20
54938;DHT22;52756;52.826;6.214;2023-10-09T09:43:23;17.80;85.10
54938;DHT22;52756;52.826;6.214;2023-10-09T09:45:52;17.80;85.00
54938;DHT22;52756;52.826;6.214;2023-10-09T09:48:18;17.90;85.00
54938;DHT22;52756;52.826;6.214;2023-10-09T09:50:44;17.80;84.90
54938;DHT22;52756;52.826;6.214;2023-10-09T09:53:14;17.90;84.80
54938;DHT22;52756;52.826;6.214;2023-10-09T09:56:03;17.90;84.80
54938;DHT22;52756;52.826;6.214;2023-10-09T09:58:30;17.90;84.60
54938;DHT22;52756;52.826;6.214;2023-10-09T10:01:09;17.90;84.70
54938;DHT22;52756;52.826;6.214;2023-10-09T10:03:58;18.00;84.60
54938;DHT22;52756;52.826;6.214;2023-10-09T10:06:25;18.00;85.00
54938;DHT22;52756;52.826;6.214;2023-10-09T10:08:53;18.00;84.50
54938;DHT22;52756;52.826;6.214;2023-10-09T10:14:07;18.10;84.30
54938;DHT22;52756;52.826;6.214;2023-10-09T10:17:03;18.10;84.40
54938;DHT22;52756;52.826;6.214;2023-10-09T10:23:36;18.20;84.10
54938;DHT22;52756;52.826;6.214;2023-10-09T10:25:42;18.20;84.30
54938;DHT22;52756;52.826;6.214;2023-10-09T10:28:18;18.10;84.30
54938;DHT22;52756;52.826;6.214;2023-10-09T10:31:02;18.30;84.40
54938;DHT22;52756;52.826;6.214;2023-10-09T10:36:24;18.40;84.00
54938;DHT22;52756;52.826;6.214;2023-10-09T10:39:08;18.50;84.00
54938;DHT22;52756;52.826;6.214;2023-10-09T10:41:55;18.50;83.80
54938;DHT22;52756;52.826;6.214;2023-10-09T10:44:32;18.50;83.70
54938;DHT22;52756;52.826;6.214;2023-10-09T10:47:08;18.60;83.40
54938;DHT22;52756;52.826;6.214;2023-10-09T10:49:55;18.60;83.10
54938;DHT22;52756;52.826;6.214;2023-10-09T10:52:25;18.60;83.00
54938;DHT22;52756;52.826;6.214;2023-10-09T10:55:14;18.60;82.80
54938;DHT22;52756;52.826;6.214;2023-10-09T10:58:03;18.60;82.70
54938;DHT22;52756;52.826;6.214;2023-10-09T11:00:40;18.60;82.80
54938;DHT22;52756;52.826;6.214;2023-10-09T11:03:25;18.70;83.00
54938;DHT22;52756;52.826;6.214;2023-10-09T11:06:30;18.70;83.10
54938;DHT22;52756;52.826;6.214;2023-10-09T11:09:07;18.70;83.00
54938;DHT22;52756;52.826;6.214;2023-10-09T11:11:50;18.70;83.00
54938;DHT22;52756;52.826;6.214;2023-10-09T11:14:21;18.80;82.90
54938;DHT22;52756;52.826;6.214;2023-10-09T11:16:50;18.70;82.80
54938;DHT22;52756;52.826;6.214;2023-10-09T11:19:20;18.80;82.80
54938;DHT22;52756;52.826;6.214;2023-10-09T11:21:58;18.80;82.70
54938;DHT22;52756;52.826;6.214;2023-10-09T11:24:46;18.80;82.80
54938;DHT22;52756;52.826;6.214;2023-10-09T11:27:25;18.80;83.00
54938;DHT22;52756;52.826;6.214;2023-10-09T11:29:54;18.90;83.30
54938;DHT22;52756;52.826;6.214;2023-10-09T11:32:21;19.00;83.70
54938;DHT22;52756;52.826;6.214;2023-10-09T11:35:10;19.10;83.40
54938;DHT22;52756;52.826;6.214;2023-10-09T11:37:36;19.20;83.00
54938;DHT22;52756;52.826;6.214;2023-10-09T11:40:30;19.20;82.90
54938;DHT22;52756;52.826;6.214;2023-10-09T11:43:13;19.30;82.60
54938;DHT22;52756;52.826;6.214;2023-10-09T11:45:39;19.30;82.20
54938;DHT22;52756;52.826;6.214;2023-10-09T11:48:18;19.30;81.70
54938;DHT22;52756;52.826;6.214;2023-10-09T11:50:59;19.40;81.40
54938;DHT22;52756;52.826;6.214;2023-10-09T11:53:27;19.40;81.50
54938;DHT22;52756;52.826;6.214;2023-10-09T11:55:53;19.40;81.30
54938;DHT22;52756;52.826;6.214;2023-10-09T11:58:19;19.40;80.90
54938;DHT22;52756;52.826;6.214;2023-10-09T12:00:55;19.40;80.80
54938;DHT22;52756;52.826;6.214;2023-10-09T12:03:31;19.40;80.60
54938;DHT22;52756;52.826;6.214;2023-10-09T12:05:59;19.40;80.60
54938;DHT22;52756;52.826;6.214;2023-10-09T12:08:30;19.40;80.50
54938;DHT22;52756;52.826;6.214;2023-10-09T12:10:55;19.40;80.40
54938;DHT22;52756;52.826;6.214;2023-10-09T12:13:25;19.40;80.30
54938;DHT22;52756;52.826;6.214;2023-10-09T12:15:52;19.40;80.10
54938;DHT22;52756;52.826;6.214;2023-10-09T12:18:19;19.40;80.20
54938;DHT22;52756;52.826;6.214;2023-10-09T12:20:45;19.40;80.20
54938;DHT22;52756;52.826;6.214;2023-10-09T12:23:18;19.40;80.10
54938;DHT22;52756;52.826;6.214;2023-10-09T12:25:44;19.40;80.10
54938;DHT22;52756;52.826;6.214;2023-10-09T12:28:13;19.30;80.00
54938;DHT22;52756;52.826;6.214;2023-10-09T12:30:40;19.30;79.80
54938;DHT22;52756;52.826;6.214;2023-10-09T12:33:09;19.30;79.60
54938;DHT22;52756;52.826;6.214;2023-10-09T12:35:39;19.30;79.60
54938;DHT22;52756;52.826;6.214;2023-10-09T12:38:06;19.30;79.60
54938;DHT22;52756;52.826;6.214;2023-10-09T12:40:36;19.30;79.50
54938;DHT22;52756;52.826;6.214;2023-10-09T12:43:03;19.30;79.50
54938;DHT22;52756;52.826;6.214;2023-10-09T12:45:29;19.30;79.50
54938;DHT22;52756;52.826;6.214;2023-10-09T12:48:01;19.30;79.40
54938;DHT22;52756;52.826;6.214;2023-10-09T12:50:34;19.20;79.30
54938;DHT22;52756;52.826;6.214;2023-10-09T12:53:00;19.30;79.50
54938;DHT22;52756;52.826;6.214;2023-10-09T12:55:36;19.20;79.70
54938;DHT22;52756;52.826;6.214;2023-10-09T12:58:06;19.30;79.90
54938;DHT22;52756;52.826;6.214;2023-10-09T13:00:39;19.30;80.10
54938;DHT22;52756;52.826;6.214;2023-10-09T13:03:15;19.30;80.10
54938;DHT22;52756;52.826;6.214;2023-10-09T13:05:48;19.30;80.20
54938;DHT22;52756;52.826;6.214;2023-10-09T13:08:28;19.30;79.90
54938;DHT22;52756;52.826;6.214;2023-10-09T13:11:04;19.30;79.70
54938;DHT22;52756;52.826;6.214;2023-10-09T13:13:37;19.30;79.60
54938;DHT22;52756;52.826;6.214;2023-10-09T13:16:15;19.30;79.50
54938;DHT22;52756;52.826;6.214;2023-10-09T13:18:50;19.40;79.30
54938;DHT22;52756;52.826;6.214;2023-10-09T13:21:19;19.30;79.30
54938;DHT22;52756;52.826;6.214;2023-10-09T13:23:45;19.40;79.50
54938;DHT22;52756;52.826;6.214;2023-10-09T13:26:18;19.40;79.50
54938;DHT22;52756;52.826;6.214;2023-10-09T13:28:48;19.40;79.50
54938;DHT22;52756;52.826;6.214;2023-10-09T13:31:15;19.40;79.80
54938;DHT22;52756;52.826;6.214;2023-10-09T13:33:43;19.40;79.20
54938;DHT22;52756;52.826;6.214;2023-10-09T13:36:10;19.40;79.20
54938;DHT22;52756;52.826;6.214;2023-10-09T13:38:55;19.40;79.00
54938;DHT22;52756;52.826;6.214;2023-10-09T13:41:24;19.40;79.10
54938;DHT22;52756;52.826;6.214;2023-10-09T13:43:55;19.40;79.20
54938;DHT22;52756;52.826;6.214;2023-10-09T13:46:23;19.40;79.30
54938;DHT22;52756;52.826;6.214;2023-10-09T13:48:49;19.40;79.30
54938;DHT22;52756;52.826;6.214;2023-10-09T13:51:15;19.40;79.40
54938;DHT22;52756;52.826;6.214;2023-10-09T13:53:45;19.40;79.30
54938;DHT22;52756;52.826;6.214;2023-10-09T13:56:18;19.40;79.20
54938;DHT22;52756;52.826;6.214;2023-10-09T13:58:53;19.40;79.20
54938;DHT22;52756;52.826;6.214;2023-10-09T14:01:20;19.40;79.20
54938;DHT22;52756;52.826;6.214;2023-10-09T14:03:59;19.40;79.20
54938;DHT22;52756;52.826;6.214;2023-10-09T14:06:26;19.40;79.30
54938;DHT22;52756;52.826;6.214;2023-10-09T14:09:03;19.40;79.40
54938;DHT22;52756;52.826;6.214;2023-10-09T14:11:33;19.40;79.40
54938;DHT22;52756;52.826;6.214;2023-10-09T14:14:06;19.30;79.30
54938;DHT22;52756;52.826;6.214;2023-10-09T14:16:37;19.30;79.30
54938;DHT22;52756;52.826;6.214;2023-10-09T14:19:08;19.30;79.30
54938;DHT22;52756;52.826;6.214;2023-10-09T14:21:38;19.30;79.40
54938;DHT22;52756;52.826;6.214;2023-10-09T14:24:06;19.30;79.30
54938;DHT22;52756;52.826;6.214;2023-10-09T14:26:42;19.30;79.40
54938;DHT22;52756;52.826;6.214;2023-10-09T14:29:07;19.30;79.50
54938;DHT22;52756;52.826;6.214;2023-10-09T14:31:33;19.30;79.60
54938;DHT22;52756;52.826;6.214;2023-10-09T14:34:04;19.30;79.60
54938;DHT22;52756;52.826;6.214;2023-10-09T14:36:30;19.30;79.60
54938;DHT22;52756;52.826;6.214;2023-10-09T14:39:00;19.30;79.40
54938;DHT22;52756;52.826;6.214;2023-10-09T14:41:26;19.30;79.40
54938;DHT22;52756;52.826;6.214;2023-10-09T14:43:54;19.30;79.50
54938;DHT22;52756;52.826;6.214;2023-10-09T14:46:20;19.30;79.60
54938;DHT22;52756;52.826;6.214;2023-10-09T14:48:55;19.30;79.50
54938;DHT22;52756;52.826;6.214;2023-10-09T14:51:22;19.30;79.40
54938;DHT22;52756;52.826;6.214;2023-10-09T14:53:58;19.30;79.50
54938;DHT22;52756;52.826;6.214;2023-10-09T14:56:30;19.30;79.60
54938;DHT22;52756;52.826;6.214;2023-10-09T14:58:59;19.30;79.60
54938;DHT22;52756;52.826;6.214;2023-10-09T15:01:26;19.20;79.60
54938;DHT22;52756;52.826;6.214;2023-10-09T15:03:57;19.20;79.70
54938;DHT22;52756;52.826;6.214;2023-10-09T15:06:32;19.20;79.60
54938;DHT22;52756;52.826;6.214;2023-10-09T15:08:59;19.30;79.60
54938;DHT22;52756;52.826;6.214;2023-10-09T15:11:33;19.30;79.60
54938;DHT22;52756;52.826;6.214;2023-10-09T15:13:59;19.20;79.60
54938;DHT22;52756;52.826;6.214;2023-10-09T15:16:25;19.20;79.40
54938;DHT22;52756;52.826;6.214;2023-10-09T15:18:56;19.20;79.40
54938;DHT22;52756;52.826;6.214;2023-10-09T15:21:28;19.10;79.30
54938;DHT22;52756;52.826;6.214;2023-10-09T15:23:57;19.10;79.30
54938;DHT22;52756;52.826;6.214;2023-10-09T15:26:23;19.20;79.50
54938;DHT22;52756;52.826;6.214;2023-10-09T15:28:53;19.20;79.40
54938;DHT22;52756;52.826;6.214;2023-10-09T15:31:19;19.10;79.40
54938;DHT22;52756;52.826;6.214;2023-10-09T15:33:47;19.10;79.50
54938;DHT22;52756;52.826;6.214;2023-10-09T15:36:16;19.00;79.50
54938;DHT22;52756;52.826;6.214;2023-10-09T15:38:47;19.10;79.60
54938;DHT22;52756;52.826;6.214;2023-10-09T15:41:15;19.00;79.50
54938;DHT22;52756;52.826;6.214;2023-10-09T15:43:41;19.00;79.50
54938;DHT22;52756;52.826;6.214;2023-10-09T15:46:12;19.00;79.40
54938;DHT22;52756;52.826;6.214;2023-10-09T15:48:41;18.90;79.30
54938;DHT22;52756;52.826;6.214;2023-10-09T15:51:12;18.90;79.20
54938;DHT22;52756;52.826;6.214;2023-10-09T15:53:41;18.90;79.20
54938;DHT22;52756;52.826;6.214;2023-10-09T15:56:07;18.90;79.30
54938;DHT22;52756;52.826;6.214;2023-10-09T15:58:33;18.80;79.70
54938;DHT22;52756;52.826;6.214;2023-10-09T16:00:58;18.80;79.30
54938;DHT22;52756;52.826;6.214;2023-10-09T16:03:25;18.70;79.30
54938;DHT22;52756;52.826;6.214;2023-10-09T16:05:52;18.80;79.30
54938;DHT22;52756;52.826;6.214;2023-10-09T16:08:18;18.70;79.40
54938;DHT22;52756;52.826;6.214;2023-10-09T16:10:45;18.70;79.40
54938;DHT22;52756;52.826;6.214;2023-10-09T16:13:12;18.70;79.40
54938;DHT22;52756;52.826;6.214;2023-10-09T16:15:42;18.70;79.30
54938;DHT22;52756;52.826;6.214;2023-10-09T16:18:10;18.70;79.30
54938;DHT22;52756;52.826;6.214;2023-10-09T16:20:37;18.60;79.20
54938;DHT22;52756;52.826;6.214;2023-10-09T16:23:03;18.60;79.10